This is the latest recevied weather packets stored in our database for station/object OK1HOL-13. If no packets are shown the sender has not sent any weather packets the latest 10 day(s).
| Time | Temp. | Humidity | Pressure | Rain* | Wind** | Luminosity | Snow |
|---|---|---|---|---|---|---|---|
| 1778173567 | 15.56° C | 59% | 1013.6 hPa | - | - | 18 W/m² | - |
| 1778172967 | 15.56° C | 59% | 1013.6 hPa | - | - | 19 W/m² | - |
| 1778172367 | 16.11° C | 57% | 1013.5 hPa | - | - | 9 W/m² | - |
| 1778171767 | 15.56° C | 56% | 1013.4 hPa | - | - | 26 W/m² | - |
| 1778171167 | 15.56° C | 55% | 1013.4 hPa | - | - | 27 W/m² | - |
| 1778170567 | 16.11° C | 53% | 1013.4 hPa | - | - | 23 W/m² | - |
| 1778169967 | 16.11° C | 54% | 1013.3 hPa | - | - | 33 W/m² | - |
| 1778169367 | 16.11° C | 53% | 1013.3 hPa | - | - | 33 W/m² | - |
| 1778168767 | 16.67° C | 52% | 1013.1 hPa | - | - | 31 W/m² | - |
| 1778168167 | 16.67° C | 52% | 1013 hPa | - | - | 55 W/m² | - |
| 1778167567 | 17.22° C | 50% | 1012.9 hPa | - | - | 66 W/m² | - |
| 1778166967 | 16.67° C | 50% | 1012.9 hPa | - | - | 75 W/m² | - |
| 1778166367 | 16.67° C | 50% | 1012.9 hPa | - | - | 73 W/m² | - |
| 1778165167 | 17.22° C | 47% | 1012.6 hPa | - | - | 52 W/m² | - |
| 1778164572 | 17.78° C | 46% | 1012.5 hPa | - | - | 50 W/m² | - |
| 1778163967 | 17.78° C | 46% | 1012.4 hPa | - | - | 81 W/m² | - |
| 1778163367 | 18.33° C | 44% | 1012.3 hPa | - | - | 90 W/m² | - |
| 1778162767 | 18.89° C | 42% | 1012.4 hPa | - | - | 431 W/m² | - |
| 1778162172 | 18.89° C | 42% | 1012.4 hPa | - | - | 431 W/m² | - |
| 1778161567 | 18.33° C | 44% | 1012.5 hPa | - | - | 431 W/m² | - |
| 1778160967 | 17.78° C | 45% | 1012.6 hPa | - | - | 128 W/m² | - |
| 1778160367 | 18.33° C | 44% | 1012.3 hPa | - | - | 153 W/m² | - |
| 1778159770 | 18.33° C | 43% | 1012.4 hPa | - | - | 0 W/m² | - |
| 1778159166 | 18.33° C | 44% | 1012.5 hPa | - | - | 358 W/m² | - |
| 1778158566 | 17.78° C | 44% | 1012.5 hPa | - | - | 244 W/m² | - |
* Rain since midnight (hover to see other rain measurements)
** Current wind speed in m/s (hover to see current wind gust speed)